Time;durP1;ratioP1;P1;durP2;ratioP2;P2;SDS_P1;SDS_P2;PMS_P1;PMS_P2;Temp;Humidity;BMP_temperature;BMP_pressure;BME280_temperature;BME280_humidity;BME280_pressure;Samples;Min_cycle;Max_cycle;Signal;HPM_P1;HPM_P2
2023/02/15 00:00:12;;;;;;;1.62;1.52;;;;;;;3.61;61.27;101614.50;4351853;32;34298;-83
2023/02/15 00:02:40;;;;;;;2.10;1.60;;;;;;;3.72;60.72;101617.25;4353364;32;34595;-83
2023/02/15 00:05:08;;;;;;;3.50;3.20;;;;;;;3.59;60.70;101624.03;4355411;32;33334;-83
2023/02/15 00:07:36;;;;;;;1.70;1.60;;;;;;;3.58;60.70;101617.94;4350542;32;33407;-82
2023/02/15 00:10:04;;;;;;;1.50;1.40;;;;;;;3.71;60.49;101613.75;4352466;32;33437;-82
2023/02/15 00:12:32;;;;;;;2.55;2.37;;;;;;;3.58;61.34;101623.16;4353651;32;34782;-83
2023/02/15 00:15:00;;;;;;;1.15;1.15;;;;;;;3.69;61.04;101620.69;4352421;32;32341;-82
2023/02/15 00:17:28;;;;;;;0.52;0.52;;;;;;;3.75;60.99;101626.00;4368507;32;34706;-82
2023/02/15 00:19:56;;;;;;;1.00;1.00;;;;;;;3.84;60.32;101630.44;4353356;32;33012;-83
2023/02/15 00:22:23;;;;;;;0.20;0.20;;;;;;;3.70;60.70;101624.16;4355273;32;33843;-83
2023/02/15 00:24:51;;;;;;;1.37;1.37;;;;;;;3.71;60.54;101629.44;4367135;32;34253;-84
2023/02/15 00:27:19;;;;;;;0.70;0.70;;;;;;;3.60;60.95;101628.38;4353126;32;36106;-83
2023/02/15 00:29:47;;;;;;;1.48;1.37;;;;;;;3.67;60.77;101635.47;4352039;32;33344;-83
2023/02/15 00:32:15;;;;;;;0.43;0.43;;;;;;;3.63;60.82;101622.34;4344402;32;32903;-82
2023/02/15 00:34:43;;;;;;;2.92;2.72;;;;;;;3.32;61.25;101627.09;4350660;32;31797;-83
2023/02/15 00:37:11;;;;;;;1.30;1.30;;;;;;;3.38;61.14;101629.84;4354560;32;34175;-83
2023/02/15 00:39:38;;;;;;;2.40;2.00;;;;;;;3.50;61.33;101618.66;4354261;32;32113;-83
2023/02/15 00:42:06;;;;;;;0.25;0.25;;;;;;;3.51;61.28;101623.03;4365837;32;33513;-83
2023/02/15 00:44:33;;;;;;;0.52;0.52;;;;;;;3.46;61.23;101622.09;4365361;32;33540;-83
2023/02/15 00:47:01;;;;;;;0.62;0.62;;;;;;;3.41;61.52;101621.16;4353457;32;32190;-83
2023/02/15 00:49:29;;;;;;;1.95;1.85;;;;;;;3.40;61.84;101620.28;4354200;32;32995;-83
2023/02/15 00:51:57;;;;;;;1.85;1.75;;;;;;;3.44;61.61;101623.81;4340161;32;33676;-83
2023/02/15 00:54:24;;;;;;;3.12;2.83;;;;;;;3.47;61.43;101619.53;4353126;32;32913;-84
2023/02/15 00:56:52;;;;;;;2.37;2.20;;;;;;;3.38;61.56;101621.13;4366014;32;33637;-84
2023/02/15 00:59:20;;;;;;;3.95;0.77;;;;;;;3.51;61.39;101621.34;4365563;32;34403;-84
2023/02/15 01:01:47;;;;;;;1.02;0.98;;;;;;;3.33;62.02;101621.94;4365498;32;34460;-83
2023/02/15 01:04:15;;;;;;;1.30;1.30;;;;;;;3.27;61.55;101616.59;4351750;32;33812;-83
2023/02/15 01:06:43;;;;;;;1.23;1.23;;;;;;;3.25;61.59;101620.06;4353250;32;33727;-82
2023/02/15 01:09:12;;;;;;;0.93;0.77;;;;;;;3.46;61.24;101614.25;4352393;32;94740;-82
2023/02/15 01:11:39;;;;;;;1.20;1.20;;;;;;;3.50;61.33;101608.22;4366408;32;33876;-82
2023/02/15 01:14:07;;;;;;;1.30;1.23;;;;;;;3.48;61.36;101615.19;4347270;32;31849;-82
2023/02/15 01:16:38;;;;;;;1.55;1.37;;;;;;;3.45;61.66;101612.50;4341772;32;33393;-82
2023/02/15 01:19:06;;;;;;;1.08;1.08;;;;;;;3.44;61.27;101613.37;4355795;32;33432;-82
2023/02/15 01:21:34;;;;;;;0.50;0.50;;;;;;;3.39;61.54;101612.44;4344294;32;32892;-82
2023/02/15 01:24:02;;;;;;;7.93;2.75;;;;;;;3.45;61.34;101615.12;4366752;32;33164;-82
2023/02/15 01:26:30;;;;;;;1.65;1.55;;;;;;;3.46;61.44;101603.81;4348388;32;31801;-83
2023/02/15 01:28:58;;;;;;;1.77;1.65;;;;;;;3.65;60.73;101602.34;4353128;32;34109;-83
2023/02/15 01:31:26;;;;;;;2.97;2.78;;;;;;;3.56;60.90;101600.47;4339780;32;35149;-83
2023/02/15 01:33:54;;;;;;;2.15;1.08;;;;;;;3.57;60.99;101594.41;4355034;32;34169;-83
2023/02/15 01:36:21;;;;;;;0.45;0.45;;;;;;;3.64;60.34;101597.97;4366055;32;33687;-83
2023/02/15 01:38:51;;;;;;;0.93;0.93;;;;;;;3.55;60.47;101596.09;4352987;32;33366;-83
2023/02/15 01:41:26;;;;;;;0.88;0.88;;;;;;;3.58;60.29;101590.94;4366794;32;34047;-82
2023/02/15 01:44:00;;;;;;;0.50;0.50;;;;;;;3.67;59.93;101580.62;4366764;32;33503;-82
2023/02/15 01:46:33;;;;;;;0.35;0.35;;;;;;;3.68;59.76;101582.34;4365939;32;33812;-82
2023/02/15 01:49:05;;;;;;;1.23;1.15;;;;;;;3.57;59.62;101579.63;4340678;32;33323;-82
2023/02/15 01:51:35;;;;;;;4.75;1.87;;;;;;;3.46;59.82;101585.53;4347110;32;32795;-82
2023/02/15 01:54:10;;;;;;;2.45;0.90;;;;;;;3.42;60.08;101583.72;4353354;32;34244;-83
2023/02/15 01:56:38;;;;;;;1.40;1.40;;;;;;;3.43;59.89;101578.56;4341660;32;34097;-83
2023/02/15 01:59:11;;;;;;;0.85;0.85;;;;;;;3.21;60.21;101582.56;4353156;32;33720;-83
2023/02/15 02:01:38;;;;;;;0.60;0.60;;;;;;;3.15;60.25;101585.09;4353128;32;33448;-83
2023/02/15 02:04:06;;;;;;;1.25;1.25;;;;;;;3.06;60.51;101585.84;4354102;32;32174;-82
2023/02/15 02:06:35;;;;;;;1.48;1.37;;;;;;;2.92;61.04;101581.25;4342413;32;35274;-83
2023/02/15 02:09:03;;;;;;;0.50;0.50;;;;;;;3.15;60.81;101585.09;4366246;32;31721;-83
2023/02/15 02:11:33;;;;;;;0.88;0.88;;;;;;;3.15;60.85;101579.88;4345764;32;32927;-83
2023/02/15 02:14:01;;;;;;;2.30;1.80;;;;;;;3.09;61.28;101585.03;4354496;32;32586;-84
2023/02/15 02:16:36;;;;;;;3.05;2.85;;;;;;;3.14;61.08;101572.91;4365518;32;34595;-83
2023/02/15 02:19:18;;;;;;;1.92;1.50;;;;;;;3.20;60.70;101578.22;4364099;32;33899;-84
2023/02/15 02:22:32;;;;;;;0.40;0.40;;;;;;;3.15;61.23;101573.78;4358661;32;33865;-82
2023/02/15 02:25:15;;;;;;;0.50;0.50;;;;;;;3.24;61.00;101566.09;4365735;32;32852;-83
2023/02/15 02:28:02;;;;;;;1.52;1.42;;;;;;;3.26;60.60;101575.69;4353500;32;35245;-82
2023/02/15 02:30:48;;;;;;;0.13;0.13;;;;;;;3.21;60.84;101569.53;4359386;32;33760;-83
2023/02/15 02:33:18;;;;;;;0.80;0.80;;;;;;;3.27;60.47;101564.38;4358830;32;33775;-82
2023/02/15 02:35:55;;;;;;;1.30;1.00;;;;;;;3.21;60.60;101569.53;4359025;32;33267;-82
2023/02/15 02:38:44;;;;;;;1.70;1.60;;;;;;;3.46;59.55;101567.25;4352232;32;33413;-83
2023/02/15 02:41:31;;;;;;;1.62;1.42;;;;;;;3.21;59.98;101573.88;4355085;32;33565;-83
2023/02/15 02:44:24;;;;;;;0.10;0.10;;;;;;;3.18;60.27;101574.72;4364010;32;33818;-83
2023/02/15 02:47:12;;;;;;;2.37;1.20;;;;;;;3.29;59.84;101575.75;4351708;32;34383;-84
2023/02/15 02:49:43;;;;;;;0.30;0.30;;;;;;;3.19;59.76;101581.69;4340969;32;33634;-84
2023/02/15 02:52:35;;;;;;;0.22;0.22;;;;;;;3.25;59.53;101583.50;4353593;32;34759;-84
2023/02/15 02:55:07;;;;;;;0.90;0.90;;;;;;;3.15;59.61;101585.09;4354259;32;33705;-84
2023/02/15 02:57:37;;;;;;;2.08;1.25;;;;;;;3.20;59.30;101577.34;4352895;32;34149;-83
2023/02/15 03:00:08;;;;;;;1.65;1.55;;;;;;;3.03;nan;101582.28;4365031;32;34251;-84
2023/02/15 03:02:39;;;;;;;0.47;0.47;;;;;;;3.00;59.52;101585.75;4346098;32;32439;-84
2023/02/15 03:05:11;;;;;;;1.53;1.13;;;;;;;3.07;59.19;101584.09;4358417;32;32447;-84
2023/02/15 03:07:40;;;;;;;0.20;0.20;;;;;;;3.09;59.23;101577.19;4349267;32;32993;-84
2023/02/15 03:10:09;;;;;;;0.60;0.60;;;;;;;3.00;59.60;101585.75;4330084;32;33407;-83
2023/02/15 03:12:40;;;;;;;1.92;1.75;;;;;;;2.95;59.73;101578.72;4353390;32;33149;-83
2023/02/15 03:15:13;;;;;;;0.60;0.60;;;;;;;2.82;60.22;101588.06;4356520;32;34786;-84
2023/02/15 03:17:44;;;;;;;;;;;;;;;2.96;59.84;101583.06;4361039;32;33970;-83
2023/02/15 03:20:34;;;;;;;0.47;0.47;;;;;;;2.91;59.41;101587.34;4364162;32;33766;-82
2023/02/15 03:23:04;;;;;;;1.17;1.08;;;;;;;3.01;59.04;101584.00;4347007;32;35446;-83
2023/02/15 03:25:33;;;;;;;3.17;1.23;;;;;;;2.86;59.54;101583.78;4366175;32;33990;-81
2023/02/15 03:28:08;;;;;;;3.85;1.02;;;;;;;2.89;59.62;101591.62;4347688;32;33220;-82
2023/02/15 03:30:37;;;;;;;0.75;0.73;;;;;;;2.87;59.55;101593.34;4354097;32;33667;-81
2023/02/15 03:33:05;;;;;;;0.73;0.73;;;;;;;2.80;59.49;101592.34;4354900;32;33025;-82
2023/02/15 03:36:04;;;;;;;0.22;0.22;;;;;;;2.72;59.78;101594.84;4355155;32;32550;-82
2023/02/15 03:38:47;;;;;;;0.22;0.22;;;;;;;2.79;59.71;101594.09;4338262;32;33686;-82
2023/02/15 03:41:16;;;;;;;0.13;0.13;;;;;;;2.68;59.49;101597.38;4352920;32;32896;-82
2023/02/15 03:44:02;;;;;;;0.52;0.52;;;;;;;2.65;59.71;101598.19;4366134;32;33102;-82
2023/02/15 03:46:40;;;;;;;2.65;0.62;;;;;;;2.59;59.82;101603.31;4353884;32;33036;-82
2023/02/15 03:49:12;;;;;;;0.52;0.52;;;;;;;2.67;59.51;101596.50;4353675;32;32179;-82
2023/02/15 03:51:42;;;;;;;2.97;1.95;;;;;;;2.42;59.77;101589.06;4353558;32;33863;-82
2023/02/15 03:54:38;;;;;;;0.47;0.47;;;;;;;2.46;59.94;101593.50;4347484;32;33580;-82
2023/02/15 04:03:17;;;;;;;0.43;0.43;;;;;;;2.69;58.82;101602.63;4365446;32;33821;-84
2023/02/15 04:05:45;;;;;;;2.35;1.45;;;;;;;2.58;59.34;101600.69;4366900;32;33192;-84
2023/02/15 04:08:12;;;;;;;1.98;1.33;;;;;;;2.62;59.26;101599.87;4350590;32;33625;-83
2023/02/15 04:10:53;;;;;;;1.17;1.17;;;;;;;2.47;59.72;101592.66;4356954;32;34494;-83
2023/02/15 04:13:30;;;;;;;0.98;0.57;;;;;;;2.51;59.45;101594.47;4353413;32;33587;-83
2023/02/15 04:16:04;;;;;;;1.02;1.02;;;;;;;2.56;59.01;101593.72;4344258;32;33973;-83
2023/02/15 04:26:55;;;;;;;1.30;1.20;;;;;;;2.39;59.07;101583.84;4345344;32;33855;-83
2023/02/15 04:29:24;;;;;;;0.57;0.57;;;;;;;2.50;58.56;101592.72;4347211;32;33349;-83
2023/02/15 04:31:53;;;;;;;1.37;1.37;;;;;;;2.36;58.59;101588.97;4335538;32;32107;-84
2023/02/15 04:34:21;;;;;;;0.30;0.30;;;;;;;2.48;58.50;101579.66;4352381;32;33672;-84
2023/02/15 04:36:50;;;;;;;0.10;0.10;;;;;;;2.27;59.25;101590.56;4353448;32;33938;-84
2023/02/15 04:39:18;;;;;;;0.52;0.52;;;;;;;2.59;58.14;101581.56;4354385;32;32863;-84
2023/02/15 04:41:47;;;;;;;4.22;1.98;;;;;;;2.17;59.32;101587.75;4347716;32;33065;-84
2023/02/15 04:44:15;;;;;;;1.87;1.73;;;;;;;2.21;59.40;101595.66;4346956;32;33884;-84
2023/02/15 04:46:43;;;;;;;0.65;0.65;;;;;;;2.21;59.29;101595.66;4367495;32;33338;-84
2023/02/15 04:49:11;;;;;;;1.52;1.45;;;;;;;2.15;59.01;101603.37;4358916;32;33862;-84
2023/02/15 04:51:39;;;;;;;0.93;0.93;;;;;;;2.05;58.98;101604.91;4353928;32;32284;-84
2023/02/15 04:54:06;;;;;;;1.08;1.00;;;;;;;2.17;58.54;101599.06;4367215;32;33661;-84
2023/02/15 04:56:37;;;;;;;1.12;1.12;;;;;;;2.08;58.42;101596.25;4353906;32;34026;-83
2023/02/15 04:59:05;;;;;;;0.77;0.77;;;;;;;2.00;59.04;101598.75;4366070;32;32503;-84
2023/02/15 05:01:33;;;;;;;3.92;1.67;;;;;;;1.98;59.24;101596.94;4348379;32;32459;-83
2023/02/15 05:04:00;;;;;;;2.97;1.83;;;;;;;1.91;59.10;101595.06;4352784;32;33055;-83
2023/02/15 05:06:28;;;;;;;0.62;0.62;;;;;;;1.90;59.09;101593.28;4366121;32;34784;-83
2023/02/15 05:08:58;;;;;;;1.40;1.40;;;;;;;2.01;58.68;101600.50;4351375;32;33750;-83
2023/02/15 05:11:27;;;;;;;2.58;1.77;;;;;;;2.07;58.32;101602.34;4352855;32;30674;-84
2023/02/15 05:13:55;;;;;;;0.32;0.32;;;;;;;1.86;59.21;101604.53;4335599;32;33546;-84
2023/02/15 05:16:23;;;;;;;0.57;0.43;;;;;;;1.91;59.03;101606.37;4347269;32;33623;-84
2023/02/15 05:18:51;;;;;;;0.60;0.60;;;;;;;1.83;59.50;101612.25;4352536;32;33882;-83
2023/02/15 05:21:19;;;;;;;0.60;0.60;;;;;;;1.83;59.88;101612.25;4353548;32;33121;-83
2023/02/15 05:23:47;;;;;;;0.20;0.20;;;;;;;1.92;59.57;101618.53;4358424;32;33747;-84
2023/02/15 05:29:10;;;;;;;2.17;2.08;;;;;;;1.94;58.91;101616.84;4358526;32;34578;-83
2023/02/15 05:31:37;;;;;;;1.42;0.80;;;;;;;1.98;58.92;101617.78;4353102;32;32726;-83
2023/02/15 05:34:06;;;;;;;3.20;1.90;;;;;;;1.88;59.02;101628.88;4353322;32;35635;-83
2023/02/15 05:36:34;;;;;;;2.83;2.72;;;;;;;1.77;59.52;101629.53;4363425;32;34502;-83
2023/02/15 05:39:03;;;;;;;1.02;1.02;;;;;;;1.86;59.06;101627.97;4352268;32;33887;-83
2023/02/15 05:41:31;;;;;;;4.62;3.55;;;;;;;1.71;59.49;101629.41;4348275;32;33863;-83
2023/02/15 05:43:59;;;;;;;4.97;3.47;;;;;;;1.64;59.61;101635.31;4343789;32;33183;-82
2023/02/15 05:46:26;;;;;;;0.80;0.62;;;;;;;1.65;59.67;101638.78;4344570;32;34730;-82
2023/02/15 05:48:54;;;;;;;0.82;0.82;;;;;;;1.61;60.08;101636.94;4344673;32;35727;-83
2023/02/15 05:51:22;;;;;;;1.10;1.10;;;;;;;1.61;60.00;101643.03;4343478;32;33596;-83
2023/02/15 05:53:50;;;;;;;1.48;1.45;;;;;;;1.47;60.42;101647.06;4352687;32;33188;-85
2023/02/15 05:56:17;;;;;;;1.30;1.30;;;;;;;1.51;60.33;101641.06;4364777;32;33859;-85
2023/02/15 05:58:45;;;;;;;3.42;3.15;;;;;;;1.62;60.09;101639.59;4355537;32;32962;-85
2023/02/15 06:01:16;;;;;;;1.10;1.10;;;;;;;1.64;60.15;101643.13;4340963;32;33332;-86
2023/02/15 06:03:45;;;;;;;0.82;0.82;;;;;;;1.79;59.56;101639.97;4343357;32;33073;-85
2023/02/15 06:06:13;;;;;;;1.08;1.08;;;;;;;1.88;58.86;101636.69;4345129;32;33407;-85
2023/02/15 06:08:41;;;;;;;0.98;0.98;;;;;;;1.49;60.05;101645.38;4344292;32;32640;-85
2023/02/15 06:11:12;;;;;;;2.47;2.30;;;;;;;1.63;59.51;101650.91;4342437;32;33122;-86
2023/02/15 06:13:40;;;;;;;2.42;1.70;;;;;;;1.65;59.42;101652.69;4352968;32;32574;-86
2023/02/15 06:16:07;;;;;;;1.62;1.58;;;;;;;1.73;59.29;101648.53;4366079;32;33983;-86
2023/02/15 06:18:35;;;;;;;0.37;0.37;;;;;;;1.75;59.53;101649.44;4343687;32;33662;-86
2023/02/15 06:21:03;;;;;;;2.72;2.53;;;;;;;1.87;59.18;101651.44;4344496;32;31585;-82
2023/02/15 06:23:30;;;;;;;0.45;0.45;;;;;;;1.74;59.54;101647.66;4337592;32;33813;-83
2023/02/15 06:25:58;;;;;;;1.95;1.85;;;;;;;1.67;59.99;101643.19;4318705;32;33301;-83
2023/02/15 06:28:26;;;;;;;2.08;1.98;;;;;;;1.74;60.08;101645.06;4362728;32;33857;-83
2023/02/15 06:30:54;;;;;;;1.75;1.67;;;;;;;1.91;59.59;101647.16;4354033;32;34413;-83
2023/02/15 06:33:22;;;;;;;2.95;2.75;;;;;;;1.85;60.06;101644.41;4352012;32;33874;-85
2023/02/15 06:35:50;;;;;;;2.62;2.45;;;;;;;1.88;60.12;101647.09;4355010;32;33693;-84
2023/02/15 06:38:18;;;;;;;1.17;1.17;;;;;;;1.94;59.86;101653.31;4351906;32;34305;-83
2023/02/15 06:40:46;;;;;;;0.62;0.62;;;;;;;1.97;59.61;101653.38;4350639;32;33802;-84
2023/02/15 06:43:14;;;;;;;2.95;0.73;;;;;;;2.06;59.16;101657.91;4347162;32;32761;-83
2023/02/15 06:45:42;;;;;;;1.00;1.00;;;;;;;2.07;59.56;101650.97;4346282;32;32912;-84
2023/02/15 06:48:11;;;;;;;3.12;2.12;;;;;;;2.14;59.40;101650.25;4354314;32;33976;-83
2023/02/15 06:50:38;;;;;;;14.65;3.33;;;;;;;2.16;59.34;101653.75;4350662;32;32995;-84
2023/02/15 06:53:06;;;;;;;1.52;1.35;;;;;;;2.01;59.91;101656.94;4353189;32;33577;-83
2023/02/15 06:55:34;;;;;;;0.98;0.98;;;;;;;2.14;59.68;101656.34;4365103;32;33173;-84
2023/02/15 06:58:01;;;;;;;2.08;1.98;;;;;;;2.27;59.56;101658.31;4354541;32;34489;-84
2023/02/15 07:00:29;;;;;;;0.55;0.55;;;;;;;2.29;59.61;101659.25;4364723;32;33040;-84
2023/02/15 07:02:57;;;;;;;2.28;2.08;;;;;;;2.29;59.99;101660.97;4351829;32;34954;-83
2023/02/15 07:05:30;;;;;;;0.82;0.82;;;;;;;2.33;60.25;101668.03;4350900;32;34512;-83
2023/02/15 07:07:59;;;;;;;1.52;1.52;;;;;;;2.39;60.38;101662.91;4350409;32;33873;-84
2023/02/15 07:10:27;;;;;;;1.65;1.48;;;;;;;2.38;60.62;101657.69;4341581;32;33602;-83
2023/02/15 07:12:54;;;;;;;1.52;1.42;;;;;;;2.59;60.54;101649.38;4347990;32;32847;-84
2023/02/15 07:15:22;;;;;;;2.50;2.35;;;;;;;2.61;60.54;101660.69;4364932;32;33777;-84
2023/02/15 07:17:50;;;;;;;1.23;1.15;;;;;;;2.85;60.26;101653.34;4342404;32;33239;-84
2023/02/15 07:20:20;;;;;;;4.05;3.75;;;;;;;2.80;61.14;101650.66;4335593;32;32610;-84
2023/02/15 07:22:48;;;;;;;2.72;1.75;;;;;;;3.08;60.18;101640.66;4354465;32;34211;-85
2023/02/15 07:25:17;;;;;;;2.00;1.90;;;;;;;3.28;60.30;101644.47;4350938;32;34196;-84
2023/02/15 07:27:45;;;;;;;3.08;2.60;;;;;;;3.19;60.71;101639.12;4330955;32;33845;-84
2023/02/15 07:30:16;;;;;;;3.12;2.80;;;;;;;3.08;61.45;101646.75;4350440;32;31717;-86
2023/02/15 07:35:33;;;;;;;3.20;2.00;;;;;;;3.37;61.26;101645.47;4344051;32;33017;-86
2023/02/15 07:38:01;;;;;;;1.00;0.95;;;;;;;3.38;61.61;101649.84;4344723;32;33899;-87
2023/02/15 07:40:30;;;;;;;1.80;1.70;;;;;;;3.48;61.44;101646.50;4358694;32;33004;-86
2023/02/15 07:42:59;;;;;;;1.58;1.50;;;;;;;3.59;61.31;101644.94;4352183;32;33741;-87
2023/02/15 07:45:27;;;;;;;1.17;1.00;;;;;;;3.74;61.17;101642.53;4351301;32;32121;-86
2023/02/15 07:47:55;;;;;;;1.00;1.00;;;;;;;3.83;61.22;101640.03;4363389;32;32473;-87
2023/02/15 07:50:23;;;;;;;3.20;2.30;;;;;;;4.07;60.87;101642.09;4363739;32;33419;-87
2023/02/15 07:52:53;;;;;;;2.90;2.70;;;;;;;4.08;61.06;101635.09;4354300;32;32699;-86
2023/02/15 07:55:47;;;;;;;6.90;1.27;;;;;;;4.31;60.76;101623.19;4353990;32;36594;-86
2023/02/15 07:58:18;;;;;;;1.55;1.45;;;;;;;4.34;60.62;101628.47;4345000;32;33952;-86
2023/02/15 08:01:01;;;;;;;1.73;1.35;;;;;;;4.40;60.63;101632.00;4351359;32;33068;-86
2023/02/15 08:03:29;;;;;;;;;;;;;;;4.57;60.41;101638.31;4342822;32;33706;-86
2023/02/15 08:06:05;;;;;;;0.55;0.55;;;;;;;4.75;60.11;101628.00;4357096;32;34210;-86
2023/02/15 08:08:37;;;;;;;0.32;0.32;;;;;;;4.86;59.91;101622.88;4332461;32;33084;-87
2023/02/15 08:11:28;;;;;;;0.98;0.98;;;;;;;5.27;59.31;101631.06;4351480;32;33624;-87
2023/02/15 08:14:08;;;;;;;1.20;1.10;;;;;;;5.42;59.14;101629.41;4344348;32;33047;-87
2023/02/15 08:16:41;;;;;;;2.78;2.58;;;;;;;5.51;59.40;101619.87;4340741;32;33025;-86
2023/02/15 08:19:29;;;;;;;1.77;1.67;;;;;;;5.58;59.35;101615.53;4349532;32;33834;-87
2023/02/15 08:21:59;;;;;;;1.58;1.48;;;;;;;5.86;58.76;101606.94;4353506;32;32664;-87
2023/02/15 08:24:29;;;;;;;0.68;0.68;;;;;;;5.68;59.49;101606.84;4332987;32;32503;-87
2023/02/15 08:26:58;;;;;;;5.78;4.15;;;;;;;6.05;58.85;101602.69;4350282;32;33054;-86
2023/02/15 08:29:27;;;;;;;2.83;2.53;;;;;;;5.86;59.06;101601.69;4353397;32;33552;-86
2023/02/15 08:31:58;;;;;;;2.70;1.67;;;;;;;6.15;58.52;101599.22;4367308;32;31885;-86
2023/02/15 08:34:26;;;;;;;2.90;2.65;;;;;;;5.92;59.66;101608.75;4356188;32;34194;-87
2023/02/15 08:36:53;;;;;;;2.42;1.73;;;;;;;6.03;59.77;101599.19;4331737;32;33307;-86
2023/02/15 08:39:22;;;;;;;0.95;0.88;;;;;;;6.45;57.90;101608.03;4344361;32;32753;-85
2023/02/15 08:41:50;;;;;;;1.48;1.37;;;;;;;6.77;56.92;101605.47;4328594;32;32858;-87
2023/02/15 08:44:19;;;;;;;1.80;1.77;;;;;;;6.71;57.10;101599.34;4336108;32;33957;-86
2023/02/15 08:46:48;;;;;;;1.65;1.58;;;;;;;7.12;56.24;101601.94;4342609;32;33196;-86
2023/02/15 08:49:18;;;;;;;2.75;2.55;;;;;;;7.30;55.57;101594.03;4352313;32;34465;-87
2023/02/15 08:51:47;;;;;;;2.17;2.05;;;;;;;6.95;55.98;101601.09;4349172;32;33336;-86
2023/02/15 08:54:18;;;;;;;2.03;1.92;;;;;;;6.50;57.37;101594.91;4345589;32;33127;-85
2023/02/15 08:56:46;;;;;;;1.60;1.50;;;;;;;6.59;57.27;101587.94;4353725;32;33639;-86
2023/02/15 08:59:17;;;;;;;8.48;3.78;;;;;;;6.93;56.56;101586.22;4356831;32;34114;-85
2023/02/15 09:01:46;;;;;;;1.73;1.30;;;;;;;7.14;56.54;101579.19;4358256;32;33339;-85
2023/02/15 09:04:15;;;;;;;1.42;0.75;;;;;;;7.13;55.79;101578.31;4346246;32;33298;-86
2023/02/15 09:06:44;;;;;;;3.65;3.33;;;;;;;7.29;56.52;101589.69;4356040;32;32913;-86
2023/02/15 09:09:16;;;;;;;23.25;3.60;;;;;;;7.49;56.56;101578.25;4351231;32;33750;-86
2023/02/15 09:11:46;;;;;;;7.97;1.75;;;;;;;8.32;52.37;101579.66;4355572;32;33706;-86
2023/02/15 09:14:17;;;;;;;1.45;1.35;;;;;;;8.27;52.78;101578.81;4342906;32;32718;-86
2023/02/15 09:16:48;;;;;;;1.12;1.12;;;;;;;8.32;52.63;101587.53;4344009;32;33883;-86
2023/02/15 09:19:18;;;;;;;0.98;0.98;;;;;;;8.25;53.46;101585.81;4344256;32;34636;-86
2023/02/15 09:21:46;;;;;;;4.82;2.67;;;;;;;8.13;53.48;101580.62;4343495;32;32245;-86
2023/02/15 09:24:15;;;;;;;7.70;3.37;;;;;;;8.54;52.57;101574.25;4341653;32;33764;-86
2023/02/15 09:26:47;;;;;;;2.33;2.12;;;;;;;8.85;51.78;101578.41;4344025;32;33322;-86
2023/02/15 09:29:16;;;;;;;4.68;2.58;;;;;;;8.35;53.29;101576.97;4352348;32;33931;-86
2023/02/15 09:31:49;;;;;;;12.68;3.25;;;;;;;8.79;52.69;101581.12;4343686;32;33400;-86
2023/02/15 09:34:19;;;;;;;0.30;0.30;;;;;;;8.81;53.30;101587.22;4365815;32;34633;-86
2023/02/15 09:36:48;;;;;;;3.47;3.28;;;;;;;8.89;52.27;101580.16;4355690;32;33242;-85
2023/02/15 09:39:20;;;;;;;9.60;3.30;;;;;;;8.93;53.61;101579.25;4343465;32;32748;-86
2023/02/15 09:41:51;;;;;;;2.72;2.53;;;;;;;9.03;51.83;101576.53;4353583;32;33530;-86
2023/02/15 09:44:25;;;;;;;1.27;1.27;;;;;;;9.57;50.70;101575.06;4353645;32;34139;-85
2023/02/15 09:47:05;;;;;;;2.40;2.20;;;;;;;9.69;50.98;101568.81;4352582;32;33367;-85
2023/02/15 09:49:49;;;;;;;5.28;4.78;;;;;;;10.06;51.17;101566.53;4365991;32;32913;-86
2023/02/15 09:52:23;;;;;;;4.53;2.45;;;;;;;10.17;49.65;101556.75;4365372;32;33356;-86
2023/02/15 09:55:12;;;;;;;1.55;1.52;;;;;;;10.39;48.60;101557.31;4358831;32;33465;-85
2023/02/15 09:58:21;;;;;;;7.97;3.33;;;;;;;10.34;47.81;101547.72;4356284;32;33993;-85
2023/02/15 10:00:54;;;;;;;3.17;2.95;;;;;;;10.29;47.73;101550.44;4337862;32;35922;-86
2023/02/15 10:04:00;;;;;;;2.15;2.05;;;;;;;11.05;45.72;101535.09;4363276;32;33797;-85
2023/02/15 10:06:44;;;;;;;3.90;3.42;;;;;;;10.87;47.31;101543.34;4352904;32;32981;-86
2023/02/15 10:09:36;;;;;;;2.67;1.83;;;;;;;10.27;48.20;101541.66;4353713;32;33255;-86
2023/02/15 10:12:13;;;;;;;2.13;2.03;;;;;;;10.77;46.15;101532.94;4343974;32;32948;-85
2023/02/15 10:15:06;;;;;;;2.20;2.08;;;;;;;10.83;45.21;101531.09;4363594;32;33446;-85
2023/02/15 10:17:52;;;;;;;2.28;2.08;;;;;;;11.37;44.16;101529.22;4355811;32;33340;-86
2023/02/15 10:20:39;;;;;;;1.30;1.23;;;;;;;10.73;47.41;101541.84;4351439;32;32953;-86
2023/02/15 10:23:26;;;;;;;1.45;1.35;;;;;;;11.00;46.92;101526.38;4354295;32;33614;-86
2023/02/15 10:25:56;;;;;;;1.77;1.67;;;;;;;11.22;46.10;101525.09;4363257;32;34395;-86
2023/02/15 10:28:38;;;;;;;3.78;2.47;;;;;;;11.39;46.47;101530.03;4353491;32;34281;-85
2023/02/15 10:31:31;;;;;;;1.45;1.40;;;;;;;11.92;45.34;101529.91;4340421;32;33642;-86
2023/02/15 10:34:18;;;;;;;4.10;3.30;;;;;;;12.38;43.25;101528.84;4353377;32;33061;-86
2023/02/15 10:37:10;;;;;;;21.92;3.97;;;;;;;12.60;42.76;101519.47;4362318;32;32998;-86
2023/02/15 10:40:08;;;;;;;3.03;2.83;;;;;;;12.14;43.08;101517.03;4343569;32;31231;-85
2023/02/15 10:43:19;;;;;;;4.28;3.70;;;;;;;12.34;43.36;101520.09;4355440;32;33309;-85
2023/02/15 10:45:54;;;;;;;2.35;2.15;;;;;;;12.64;43.00;101522.94;4336819;32;36153;-86
2023/02/15 10:48:58;;;;;;;6.40;3.05;;;;;;;12.56;42.62;101515.16;4356048;32;33306;-85
2023/02/15 10:51:31;;;;;;;4.20;3.25;;;;;;;12.88;42.95;101514.34;4302395;32;33411;-85
2023/02/15 10:54:18;;;;;;;3.47;2.75;;;;;;;13.23;41.24;101507.25;4356662;32;33187;-85
2023/02/15 10:56:55;;;;;;;2.20;2.10;;;;;;;13.51;39.69;101508.22;4342877;32;33906;-85
2023/02/15 10:59:29;;;;;;;3.87;3.58;;;;;;;13.16;40.69;101500.38;4343125;32;32541;-86
2023/02/15 11:02:10;;;;;;;3.12;2.58;;;;;;;13.39;41.31;101492.69;4355253;32;35148;-85
2023/02/15 11:04:51;;;;;;;2.22;2.12;;;;;;;13.95;39.41;101487.44;4341241;32;33490;-85
2023/02/15 11:07:26;;;;;;;8.35;3.53;;;;;;;13.17;40.74;101491.50;4341806;32;33826;-86
2023/02/15 11:10:05;;;;;;;4.57;2.85;;;;;;;13.62;40.86;101485.81;4339771;32;34066;-87
2023/02/15 11:12:33;;;;;;;4.72;3.03;;;;;;;13.44;40.45;101485.44;4354185;32;34631;-88
2023/02/15 11:15:14;;;;;;;2.47;2.33;;;;;;;13.80;39.79;101479.94;4334802;32;32671;-86
2023/02/15 11:17:46;;;;;;;1.35;1.25;;;;;;;13.91;39.58;101475.22;4362443;32;31945;-86
2023/02/15 11:20:21;;;;;;;6.57;3.85;;;;;;;13.33;41.17;101472.47;4363818;32;33366;-87
2023/02/15 11:22:50;;;;;;;4.78;3.35;;;;;;;13.46;40.57;101466.81;4354775;32;33379;-86
2023/02/15 11:25:30;;;;;;;1.90;1.80;;;;;;;13.65;40.63;101461.84;4342077;32;33473;-87
2023/02/15 11:27:58;;;;;;;3.10;2.83;;;;;;;13.49;40.28;101467.59;4352516;32;32458;-86
2023/02/15 11:30:32;;;;;;;2.33;1.62;;;;;;;13.45;40.85;101460.66;4339954;32;33061;-87
2023/02/15 11:33:02;;;;;;;13.60;3.78;;;;;;;13.80;40.86;101456.06;4354384;32;33663;-86
2023/02/15 11:35:58;;;;;;;4.70;2.67;;;;;;;14.39;38.11;101448.00;4347031;32;34348;-87
2023/02/15 11:38:28;;;;;;;;;;;;;;;14.53;37.37;101443.09;4365433;32;31820;-86
2023/02/15 11:41:01;;;;;;;3.83;3.10;;;;;;;14.54;37.70;101433.34;4355446;32;33617;-88
2023/02/15 11:43:34;;;;;;;1.52;1.42;;;;;;;14.15;38.85;101441.69;4344841;32;32543;-86
2023/02/15 11:46:02;;;;;;;2.15;0.82;;;;;;;13.91;38.91;101442.44;4340213;32;33670;-87
2023/02/15 11:48:31;;;;;;;1.58;1.27;;;;;;;14.65;38.14;101432.97;4352789;32;33921;-87
2023/02/15 11:51:00;;;;;;;3.50;3.28;;;;;;;13.51;39.93;101428.62;4352273;32;32935;-87
2023/02/15 11:53:32;;;;;;;4.62;2.30;;;;;;;13.28;40.41;101428.41;4344034;32;33363;-87
2023/02/15 11:56:00;;;;;;;4.30;3.20;;;;;;;13.89;39.61;101429.22;4351790;32;33001;-86
2023/02/15 11:58:33;;;;;;;7.25;3.60;;;;;;;13.84;39.02;101429.38;4354834;32;34532;-86
2023/02/15 12:01:36;;;;;;;4.85;4.40;;;;;;;14.43;37.91;101409.75;4342145;32;32976;-86
2023/02/15 12:04:34;;;;;;;2.40;2.20;;;;;;;14.75;37.19;101415.75;4367440;32;32052;-86
2023/02/15 12:07:25;;;;;;;7.53;2.35;;;;;;;14.40;37.80;101417.81;4329138;32;34202;-86
2023/02/15 12:10:22;;;;;;;1.12;1.12;;;;;;;14.57;37.12;101426.13;4352978;32;31583;-87
2023/02/15 12:13:09;;;;;;;3.20;1.95;;;;;;;14.08;37.81;101424.19;4349475;32;34383;-86
2023/02/15 12:15:37;;;;;;;3.53;2.90;;;;;;;14.62;38.14;101422.44;4344556;32;33131;-86
2023/02/15 12:18:06;;;;;;;5.90;3.17;;;;;;;14.23;37.59;101414.84;4353104;32;31936;-86